Hauptseite
METAR-TAF:

METAR-TAF

Flughäfen :

Flughafen Deauville

Deauville, Frankreich

Breite: 49-21-55N, Länge: 000-09-16E, Höhe: 146 m

Beobachtung

Neuester Wetterbericht von vor 22 Minuten, um 02:30 UTC
Windstille
Temperatur 13°C
Luftfeuchtigkeit 94%
Luftdruck 1019 hPa
Sichtweite 10 km oder mehr
keine Wolken unter 1500 m und keine Kumulonimbus oder Gewitterwolken

METAR: LFRG 180230Z AUTO 00000KT CAVOK 13/12 Q1019

Zeit: 04:52 (02:52 UTC)

Prognose

Neuester Wetterbericht von vor 12 Stunden und 52 Minuten, um 14:00 UTC
Gültige Prognose vom 17 um 15 UTC bis 17 um 24 UTC
Wind 10 kt aus Nordwest
Sichtweite 10 km oder mehr
keine Wolken unter 1500 m und keine Kumulonimbus oder Gewitterwolken

TAF: LFRG 171400Z 1715/1724 32010KT CAVOK

Wetterbeobachtungen und Prognosen von mehr als 4000 Flughäfen (METAR und TAF Bericht).

Die verfügbaren Stationen werden durch gelbe und rote Markierungen auf der Karte dargestellt.

Führen Sie die Maus auf sie, um den Namen der Station zu sehen.

Darauf klicken, um die Beobachtung von Wetterbeobachtungen und Prognosen zu sehen.

Um die Karte zu ändern : klicken Sie auf den grünen Tasten mit einem schwarzen Kreuz Zum Vergrößern, auf den grünen Button mit einem Gedankenstrich zu verkleinern, oder auf die grünen Pfeile für benachbarte Karten.


METAR-TAF: